sensor_id;sensor_type;location;lat;lon;timestamp;temperature;humidity
78184;DHT22;67442;44.570;18.610;2023-05-20T00:00:58;23.30;71.60
78184;DHT22;67442;44.570;18.610;2023-05-20T00:03:30;23.30;71.60
78184;DHT22;67442;44.570;18.610;2023-05-20T00:05:57;23.30;71.60
78184;DHT22;67442;44.570;18.610;2023-05-20T00:08:24;23.30;71.60
78184;DHT22;67442;44.570;18.610;2023-05-20T00:10:55;23.30;71.50
78184;DHT22;67442;44.570;18.610;2023-05-20T00:13:23;23.30;71.50
78184;DHT22;67442;44.570;18.610;2023-05-20T00:15:51;23.30;71.60
78184;DHT22;67442;44.570;18.610;2023-05-20T00:18:19;23.30;71.60
78184;DHT22;67442;44.570;18.610;2023-05-20T00:20:46;23.30;71.60
78184;DHT22;67442;44.570;18.610;2023-05-20T00:23:17;23.30;72.10
78184;DHT22;67442;44.570;18.610;2023-05-20T00:25:44;23.30;71.60
78184;DHT22;67442;44.570;18.610;2023-05-20T00:28:11;23.30;71.60
78184;DHT22;67442;44.570;18.610;2023-05-20T00:30:40;23.30;71.60
78184;DHT22;67442;44.570;18.610;2023-05-20T00:33:07;23.30;71.60
78184;DHT22;67442;44.570;18.610;2023-05-20T00:35:34;23.30;71.60
78184;DHT22;67442;44.570;18.610;2023-05-20T00:38:02;23.30;71.60
78184;DHT22;67442;44.570;18.610;2023-05-20T00:40:33;23.30;71.60
78184;DHT22;67442;44.570;18.610;2023-05-20T00:43:01;23.30;71.70
78184;DHT22;67442;44.570;18.610;2023-05-20T00:45:28;23.30;71.70
78184;DHT22;67442;44.570;18.610;2023-05-20T00:47:55;23.20;71.70
78184;DHT22;67442;44.570;18.610;2023-05-20T00:50:25;23.20;71.70
78184;DHT22;67442;44.570;18.610;2023-05-20T00:52:52;23.30;71.70
78184;DHT22;67442;44.570;18.610;2023-05-20T00:55:21;23.20;71.60
78184;DHT22;67442;44.570;18.610;2023-05-20T00:57:52;23.30;71.70
78184;DHT22;67442;44.570;18.610;2023-05-20T01:00:24;23.30;71.70
78184;DHT22;67442;44.570;18.610;2023-05-20T01:02:51;23.30;71.70
78184;DHT22;67442;44.570;18.610;2023-05-20T01:05:19;23.30;71.80
78184;DHT22;67442;44.570;18.610;2023-05-20T01:07:46;23.20;71.70
78184;DHT22;67442;44.570;18.610;2023-05-20T01:10:13;23.20;71.70
78184;DHT22;67442;44.570;18.610;2023-05-20T01:12:48;23.30;71.90
78184;DHT22;67442;44.570;18.610;2023-05-20T01:15:17;23.20;71.80
78184;DHT22;67442;44.570;18.610;2023-05-20T01:17:51;23.20;71.70
78184;DHT22;67442;44.570;18.610;2023-05-20T01:20:24;23.20;71.80
78184;DHT22;67442;44.570;18.610;2023-05-20T01:22:56;23.20;71.70
78184;DHT22;67442;44.570;18.610;2023-05-20T01:25:26;23.30;71.80
78184;DHT22;67442;44.570;18.610;2023-05-20T01:27:55;23.20;71.70
78184;DHT22;67442;44.570;18.610;2023-05-20T01:30:30;23.20;71.70
78184;DHT22;67442;44.570;18.610;2023-05-20T01:33:09;23.20;71.70
78184;DHT22;67442;44.570;18.610;2023-05-20T01:35:42;23.20;71.80
78184;DHT22;67442;44.570;18.610;2023-05-20T01:38:09;23.20;71.70
78184;DHT22;67442;44.570;18.610;2023-05-20T01:40:37;23.20;71.70
78184;DHT22;67442;44.570;18.610;2023-05-20T01:43:09;23.20;71.70
78184;DHT22;67442;44.570;18.610;2023-05-20T01:45:39;23.20;71.70
78184;DHT22;67442;44.570;18.610;2023-05-20T01:48:11;23.20;71.80
78184;DHT22;67442;44.570;18.610;2023-05-20T01:50:42;23.30;71.70
78184;DHT22;67442;44.570;18.610;2023-05-20T01:53:13;23.20;71.70
78184;DHT22;67442;44.570;18.610;2023-05-20T01:55:41;23.20;71.70
78184;DHT22;67442;44.570;18.610;2023-05-20T01:58:12;23.20;71.80
78184;DHT22;67442;44.570;18.610;2023-05-20T02:00:43;23.20;71.70
78184;DHT22;67442;44.570;18.610;2023-05-20T02:03:14;23.20;71.70
78184;DHT22;67442;44.570;18.610;2023-05-20T02:05:41;23.20;71.70
78184;DHT22;67442;44.570;18.610;2023-05-20T02:08:08;23.20;71.70
78184;DHT22;67442;44.570;18.610;2023-05-20T02:10:39;23.20;71.70
78184;DHT22;67442;44.570;18.610;2023-05-20T02:13:07;23.20;71.70
78184;DHT22;67442;44.570;18.610;2023-05-20T02:15:34;23.20;71.70
78184;DHT22;67442;44.570;18.610;2023-05-20T02:18:01;23.20;71.70
78184;DHT22;67442;44.570;18.610;2023-05-20T02:20:33;23.20;71.70
78184;DHT22;67442;44.570;18.610;2023-05-20T02:23:01;23.20;71.80
78184;DHT22;67442;44.570;18.610;2023-05-20T02:25:31;23.20;71.90
78184;DHT22;67442;44.570;18.610;2023-05-20T02:27:59;23.20;71.80
78184;DHT22;67442;44.570;18.610;2023-05-20T02:30:33;23.20;71.80
78184;DHT22;67442;44.570;18.610;2023-05-20T02:33:00;23.20;71.80
78184;DHT22;67442;44.570;18.610;2023-05-20T02:35:27;23.20;71.90
78184;DHT22;67442;44.570;18.610;2023-05-20T02:37:54;23.20;71.90
78184;DHT22;67442;44.570;18.610;2023-05-20T02:40:22;23.20;72.00
78184;DHT22;67442;44.570;18.610;2023-05-20T02:42:49;23.20;71.90
78184;DHT22;67442;44.570;18.610;2023-05-20T02:45:15;23.20;72.00
78184;DHT22;67442;44.570;18.610;2023-05-20T02:47:43;23.20;71.90
78184;DHT22;67442;44.570;18.610;2023-05-20T02:50:11;23.20;72.00
78184;DHT22;67442;44.570;18.610;2023-05-20T02:52:38;23.20;72.00
78184;DHT22;67442;44.570;18.610;2023-05-20T02:55:08;23.20;72.00
78184;DHT22;67442;44.570;18.610;2023-05-20T02:57:35;23.20;71.90
78184;DHT22;67442;44.570;18.610;2023-05-20T03:00:07;23.20;71.90
78184;DHT22;67442;44.570;18.610;2023-05-20T03:02:57;23.20;71.90
78184;DHT22;67442;44.570;18.610;2023-05-20T03:05:24;23.20;71.90
78184;DHT22;67442;44.570;18.610;2023-05-20T03:07:52;23.20;71.90
78184;DHT22;67442;44.570;18.610;2023-05-20T03:10:19;23.20;71.90
78184;DHT22;67442;44.570;18.610;2023-05-20T03:12:47;23.20;72.00
78184;DHT22;67442;44.570;18.610;2023-05-20T03:15:15;23.20;71.90
78184;DHT22;67442;44.570;18.610;2023-05-20T03:17:46;23.20;72.00
78184;DHT22;67442;44.570;18.610;2023-05-20T03:20:17;23.20;72.00
78184;DHT22;67442;44.570;18.610;2023-05-20T03:22:44;23.20;72.00
78184;DHT22;67442;44.570;18.610;2023-05-20T03:25:11;23.20;72.00
78184;DHT22;67442;44.570;18.610;2023-05-20T03:27:39;23.20;72.00
78184;DHT22;67442;44.570;18.610;2023-05-20T03:30:11;23.20;72.00
78184;DHT22;67442;44.570;18.610;2023-05-20T03:32:39;23.20;72.00
78184;DHT22;67442;44.570;18.610;2023-05-20T03:35:07;23.20;72.00
78184;DHT22;67442;44.570;18.610;2023-05-20T03:37:35;23.20;72.10
78184;DHT22;67442;44.570;18.610;2023-05-20T03:40:03;23.20;72.00
78184;DHT22;67442;44.570;18.610;2023-05-20T03:42:32;23.20;72.00
78184;DHT22;67442;44.570;18.610;2023-05-20T03:45:00;23.20;72.00
78184;DHT22;67442;44.570;18.610;2023-05-20T03:47:27;23.20;72.70
78184;DHT22;67442;44.570;18.610;2023-05-20T03:49:53;23.20;72.00
78184;DHT22;67442;44.570;18.610;2023-05-20T03:52:20;23.20;72.00
78184;DHT22;67442;44.570;18.610;2023-05-20T03:54:52;23.20;72.00
78184;DHT22;67442;44.570;18.610;2023-05-20T03:57:20;23.10;72.00
78184;DHT22;67442;44.570;18.610;2023-05-20T03:59:47;23.20;72.00
78184;DHT22;67442;44.570;18.610;2023-05-20T04:02:14;23.20;72.00
78184;DHT22;67442;44.570;18.610;2023-05-20T04:04:41;23.20;72.10
78184;DHT22;67442;44.570;18.610;2023-05-20T04:07:28;23.20;72.10
78184;DHT22;67442;44.570;18.610;2023-05-20T04:09:55;23.10;72.10
78184;DHT22;67442;44.570;18.610;2023-05-20T04:12:23;23.20;72.10
78184;DHT22;67442;44.570;18.610;2023-05-20T04:14:59;23.20;72.10
78184;DHT22;67442;44.570;18.610;2023-05-20T04:17:29;23.20;72.10
78184;DHT22;67442;44.570;18.610;2023-05-20T04:19:56;23.20;72.20
78184;DHT22;67442;44.570;18.610;2023-05-20T04:22:23;23.20;72.20
78184;DHT22;67442;44.570;18.610;2023-05-20T04:24:50;23.20;72.20
78184;DHT22;67442;44.570;18.610;2023-05-20T04:27:17;23.20;72.20
78184;DHT22;67442;44.570;18.610;2023-05-20T04:29:46;23.20;72.20
78184;DHT22;67442;44.570;18.610;2023-05-20T04:32:15;23.20;72.20
78184;DHT22;67442;44.570;18.610;2023-05-20T04:34:42;23.10;72.20
78184;DHT22;67442;44.570;18.610;2023-05-20T04:37:11;23.20;72.20
78184;DHT22;67442;44.570;18.610;2023-05-20T04:39:38;23.20;72.20
78184;DHT22;67442;44.570;18.610;2023-05-20T04:42:06;23.20;72.10
78184;DHT22;67442;44.570;18.610;2023-05-20T04:44:33;23.20;72.20
78184;DHT22;67442;44.570;18.610;2023-05-20T04:47:01;23.20;72.20
78184;DHT22;67442;44.570;18.610;2023-05-20T04:49:28;23.20;72.30
78184;DHT22;67442;44.570;18.610;2023-05-20T04:51:55;23.20;72.20
78184;DHT22;67442;44.570;18.610;2023-05-20T04:54:22;23.20;72.10
78184;DHT22;67442;44.570;18.610;2023-05-20T04:56:50;23.10;72.10
78184;DHT22;67442;44.570;18.610;2023-05-20T04:59:17;23.20;72.10
78184;DHT22;67442;44.570;18.610;2023-05-20T05:01:44;23.20;72.10
78184;DHT22;67442;44.570;18.610;2023-05-20T05:04:11;23.10;72.10
78184;DHT22;67442;44.570;18.610;2023-05-20T05:06:37;23.10;72.10
78184;DHT22;67442;44.570;18.610;2023-05-20T05:09:05;23.10;72.00
78184;DHT22;67442;44.570;18.610;2023-05-20T05:11:33;23.10;72.80
78184;DHT22;67442;44.570;18.610;2023-05-20T05:14:00;23.20;72.10
78184;DHT22;67442;44.570;18.610;2023-05-20T05:16:28;23.10;72.00
78184;DHT22;67442;44.570;18.610;2023-05-20T05:18:56;23.20;72.00
78184;DHT22;67442;44.570;18.610;2023-05-20T05:21:27;23.20;72.00
78184;DHT22;67442;44.570;18.610;2023-05-20T05:23:54;23.20;72.00
78184;DHT22;67442;44.570;18.610;2023-05-20T05:26:21;23.20;72.00
78184;DHT22;67442;44.570;18.610;2023-05-20T05:28:49;23.20;72.00
78184;DHT22;67442;44.570;18.610;2023-05-20T05:31:16;23.10;72.00
78184;DHT22;67442;44.570;18.610;2023-05-20T05:33:47;23.20;71.90
78184;DHT22;67442;44.570;18.610;2023-05-20T05:36:15;23.10;71.90
78184;DHT22;67442;44.570;18.610;2023-05-20T05:38:42;23.10;71.90
78184;DHT22;67442;44.570;18.610;2023-05-20T05:41:09;23.20;72.00
78184;DHT22;67442;44.570;18.610;2023-05-20T05:43:36;23.20;72.00
78184;DHT22;67442;44.570;18.610;2023-05-20T05:46:03;23.20;72.00
78184;DHT22;67442;44.570;18.610;2023-05-20T05:48:30;23.20;72.00
78184;DHT22;67442;44.570;18.610;2023-05-20T05:51:01;23.20;72.00
78184;DHT22;67442;44.570;18.610;2023-05-20T05:53:28;23.20;72.10
78184;DHT22;67442;44.570;18.610;2023-05-20T05:55:56;23.20;72.10
78184;DHT22;67442;44.570;18.610;2023-05-20T05:58:23;23.10;72.00
78184;DHT22;67442;44.570;18.610;2023-05-20T06:00:51;23.20;72.10
78184;DHT22;67442;44.570;18.610;2023-05-20T06:03:18;23.20;72.10
78184;DHT22;67442;44.570;18.610;2023-05-20T06:05:45;23.20;72.20
78184;DHT22;67442;44.570;18.610;2023-05-20T06:08:13;23.10;72.10
78184;DHT22;67442;44.570;18.610;2023-05-20T06:10:40;23.10;72.10
78184;DHT22;67442;44.570;18.610;2023-05-20T06:13:07;23.20;72.30
78184;DHT22;67442;44.570;18.610;2023-05-20T06:15:35;23.10;72.30
78184;DHT22;67442;44.570;18.610;2023-05-20T06:18:02;23.20;72.30
78184;DHT22;67442;44.570;18.610;2023-05-20T06:20:29;23.10;72.20
78184;DHT22;67442;44.570;18.610;2023-05-20T06:22:56;23.10;72.10
78184;DHT22;67442;44.570;18.610;2023-05-20T06:25:23;23.10;72.10
78184;DHT22;67442;44.570;18.610;2023-05-20T06:27:50;23.20;72.30
78184;DHT22;67442;44.570;18.610;2023-05-20T06:30:18;23.20;72.20
78184;DHT22;67442;44.570;18.610;2023-05-20T06:32:49;23.20;72.20
78184;DHT22;67442;44.570;18.610;2023-05-20T06:35:16;23.10;72.10
78184;DHT22;67442;44.570;18.610;2023-05-20T06:37:44;23.20;72.10
78184;DHT22;67442;44.570;18.610;2023-05-20T06:40:11;23.20;72.00
78184;DHT22;67442;44.570;18.610;2023-05-20T06:42:39;23.20;72.00
78184;DHT22;67442;44.570;18.610;2023-05-20T06:45:07;23.20;72.00
78184;DHT22;67442;44.570;18.610;2023-05-20T06:47:35;23.20;72.00
78184;DHT22;67442;44.570;18.610;2023-05-20T06:50:02;23.20;71.80
78184;DHT22;67442;44.570;18.610;2023-05-20T06:52:29;23.20;71.90
78184;DHT22;67442;44.570;18.610;2023-05-20T06:54:56;23.10;71.40
78184;DHT22;67442;44.570;18.610;2023-05-20T06:57:27;23.20;70.70
78184;DHT22;67442;44.570;18.610;2023-05-20T06:59:54;23.20;70.40
78184;DHT22;67442;44.570;18.610;2023-05-20T07:02:22;23.20;70.30
78184;DHT22;67442;44.570;18.610;2023-05-20T07:04:48;23.10;70.40
78184;DHT22;67442;44.570;18.610;2023-05-20T07:07:15;23.10;70.40
78184;DHT22;67442;44.570;18.610;2023-05-20T07:09:43;23.10;70.30
78184;DHT22;67442;44.570;18.610;2023-05-20T07:12:10;23.00;70.00
78184;DHT22;67442;44.570;18.610;2023-05-20T07:14:37;23.10;69.50
78184;DHT22;67442;44.570;18.610;2023-05-20T07:17:04;23.10;69.50
78184;DHT22;67442;44.570;18.610;2023-05-20T07:19:32;23.10;69.60
78184;DHT22;67442;44.570;18.610;2023-05-20T07:21:59;23.00;69.20
78184;DHT22;67442;44.570;18.610;2023-05-20T07:24:26;23.00;69.40
78184;DHT22;67442;44.570;18.610;2023-05-20T07:26:54;23.00;69.00
78184;DHT22;67442;44.570;18.610;2023-05-20T07:29:21;23.00;68.70
78184;DHT22;67442;44.570;18.610;2023-05-20T07:31:48;23.00;68.30
78184;DHT22;67442;44.570;18.610;2023-05-20T07:34:16;23.00;68.40
78184;DHT22;67442;44.570;18.610;2023-05-20T07:36:43;23.00;68.90
78184;DHT22;67442;44.570;18.610;2023-05-20T07:39:10;23.00;69.20
78184;DHT22;67442;44.570;18.610;2023-05-20T07:41:42;23.00;69.10
78184;DHT22;67442;44.570;18.610;2023-05-20T07:44:09;23.00;69.00
78184;DHT22;67442;44.570;18.610;2023-05-20T07:46:38;23.00;69.20
78184;DHT22;67442;44.570;18.610;2023-05-20T07:49:06;23.00;69.40
78184;DHT22;67442;44.570;18.610;2023-05-20T07:51:34;23.00;69.50
78184;DHT22;67442;44.570;18.610;2023-05-20T07:54:04;23.00;69.70
78184;DHT22;67442;44.570;18.610;2023-05-20T07:56:32;23.00;69.70
78184;DHT22;67442;44.570;18.610;2023-05-20T07:58:59;23.00;69.80
78184;DHT22;67442;44.570;18.610;2023-05-20T08:01:31;23.00;69.80
78184;DHT22;67442;44.570;18.610;2023-05-20T08:03:58;23.00;69.90
78184;DHT22;67442;44.570;18.610;2023-05-20T08:06:25;23.00;70.00
78184;DHT22;67442;44.570;18.610;2023-05-20T08:08:52;23.00;70.10
78184;DHT22;67442;44.570;18.610;2023-05-20T08:11:20;23.00;70.00
78184;DHT22;67442;44.570;18.610;2023-05-20T08:13:48;23.00;69.60
78184;DHT22;67442;44.570;18.610;2023-05-20T08:16:15;23.00;69.10
78184;DHT22;67442;44.570;18.610;2023-05-20T08:18:46;23.00;69.30
78184;DHT22;67442;44.570;18.610;2023-05-20T08:21:14;23.00;69.60
78184;DHT22;67442;44.570;18.610;2023-05-20T08:23:41;23.00;69.50
78184;DHT22;67442;44.570;18.610;2023-05-20T08:26:12;23.00;69.50
78184;DHT22;67442;44.570;18.610;2023-05-20T08:28:40;23.00;69.60
78184;DHT22;67442;44.570;18.610;2023-05-20T08:31:07;23.00;69.80
78184;DHT22;67442;44.570;18.610;2023-05-20T08:33:38;23.00;69.80
78184;DHT22;67442;44.570;18.610;2023-05-20T08:36:06;23.00;69.90
78184;DHT22;67442;44.570;18.610;2023-05-20T08:38:33;23.00;69.90
78184;DHT22;67442;44.570;18.610;2023-05-20T08:41:01;23.00;69.80
78184;DHT22;67442;44.570;18.610;2023-05-20T08:43:29;23.00;70.00
78184;DHT22;67442;44.570;18.610;2023-05-20T08:45:57;23.00;70.00
78184;DHT22;67442;44.570;18.610;2023-05-20T08:48:25;23.00;69.90
78184;DHT22;67442;44.570;18.610;2023-05-20T08:50:52;23.00;69.90
78184;DHT22;67442;44.570;18.610;2023-05-20T08:53:22;23.00;69.80
78184;DHT22;67442;44.570;18.610;2023-05-20T08:55:53;23.00;69.90
78184;DHT22;67442;44.570;18.610;2023-05-20T08:58:21;23.00;70.10
78184;DHT22;67442;44.570;18.610;2023-05-20T09:00:49;23.00;70.20
78184;DHT22;67442;44.570;18.610;2023-05-20T09:03:21;23.00;70.10
78184;DHT22;67442;44.570;18.610;2023-05-20T09:05:49;23.00;70.80
78184;DHT22;67442;44.570;18.610;2023-05-20T09:08:16;23.00;70.00
78184;DHT22;67442;44.570;18.610;2023-05-20T09:10:42;23.00;70.10
78184;DHT22;67442;44.570;18.610;2023-05-20T09:13:10;23.00;70.20
78184;DHT22;67442;44.570;18.610;2023-05-20T09:15:38;23.00;70.20
78184;DHT22;67442;44.570;18.610;2023-05-20T09:18:09;23.00;70.30
78184;DHT22;67442;44.570;18.610;2023-05-20T09:20:37;23.00;70.40
78184;DHT22;67442;44.570;18.610;2023-05-20T09:23:07;23.10;70.40
78184;DHT22;67442;44.570;18.610;2023-05-20T09:25:35;23.00;70.40
78184;DHT22;67442;44.570;18.610;2023-05-20T09:28:04;23.10;70.70
78184;DHT22;67442;44.570;18.610;2023-05-20T09:30:32;23.00;70.70
78184;DHT22;67442;44.570;18.610;2023-05-20T09:33:02;23.10;70.70
78184;DHT22;67442;44.570;18.610;2023-05-20T09:35:29;23.10;70.70
78184;DHT22;67442;44.570;18.610;2023-05-20T09:38:01;23.10;70.60
78184;DHT22;67442;44.570;18.610;2023-05-20T09:40:29;23.10;70.60
78184;DHT22;67442;44.570;18.610;2023-05-20T09:43:01;23.10;70.70
78184;DHT22;67442;44.570;18.610;2023-05-20T09:45:32;23.10;70.60
78184;DHT22;67442;44.570;18.610;2023-05-20T09:48:03;23.10;70.60
78184;DHT22;67442;44.570;18.610;2023-05-20T09:50:31;23.10;70.70
78184;DHT22;67442;44.570;18.610;2023-05-20T09:53:01;23.10;70.60
78184;DHT22;67442;44.570;18.610;2023-05-20T09:55:29;23.10;70.60
78184;DHT22;67442;44.570;18.610;2023-05-20T09:57:55;23.10;70.60
78184;DHT22;67442;44.570;18.610;2023-05-20T10:00:28;23.10;70.40
78184;DHT22;67442;44.570;18.610;2023-05-20T10:02:55;23.10;70.50
78184;DHT22;67442;44.570;18.610;2023-05-20T10:08:09;23.10;70.50
78184;DHT22;67442;44.570;18.610;2023-05-20T10:16:53;23.10;70.40
78184;DHT22;67442;44.570;18.610;2023-05-20T10:19:32;23.10;70.40
78184;DHT22;67442;44.570;18.610;2023-05-20T10:22:09;23.10;70.30
78184;DHT22;67442;44.570;18.610;2023-05-20T10:24:41;23.20;70.40
78184;DHT22;67442;44.570;18.610;2023-05-20T10:27:11;23.10;70.40
78184;DHT22;67442;44.570;18.610;2023-05-20T10:29:45;23.10;70.40
78184;DHT22;67442;44.570;18.610;2023-05-20T10:32:26;23.10;70.40
78184;DHT22;67442;44.570;18.610;2023-05-20T10:34:58;23.10;70.40
78184;DHT22;67442;44.570;18.610;2023-05-20T10:37:31;23.10;70.30
78184;DHT22;67442;44.570;18.610;2023-05-20T10:40:15;23.20;70.40
78184;DHT22;67442;44.570;18.610;2023-05-20T10:42:44;23.10;70.40
78184;DHT22;67442;44.570;18.610;2023-05-20T10:45:24;23.10;70.40
78184;DHT22;67442;44.570;18.610;2023-05-20T10:47:57;23.10;70.30
78184;DHT22;67442;44.570;18.610;2023-05-20T10:50:36;23.10;70.30
78184;DHT22;67442;44.570;18.610;2023-05-20T10:53:05;23.10;70.30
78184;DHT22;67442;44.570;18.610;2023-05-20T10:55:39;23.10;70.30
78184;DHT22;67442;44.570;18.610;2023-05-20T10:58:06;23.20;70.40
78184;DHT22;67442;44.570;18.610;2023-05-20T11:00:37;23.20;70.40
78184;DHT22;67442;44.570;18.610;2023-05-20T11:03:04;23.20;70.40
78184;DHT22;67442;44.570;18.610;2023-05-20T11:05:35;23.20;70.40
78184;DHT22;67442;44.570;18.610;2023-05-20T11:08:06;23.20;70.40
78184;DHT22;67442;44.570;18.610;2023-05-20T11:10:37;23.20;70.40
78184;DHT22;67442;44.570;18.610;2023-05-20T11:13:04;23.10;70.30
78184;DHT22;67442;44.570;18.610;2023-05-20T11:15:36;23.20;70.30
78184;DHT22;67442;44.570;18.610;2023-05-20T11:18:04;23.10;70.30
78184;DHT22;67442;44.570;18.610;2023-05-20T11:20:31;23.10;70.20
78184;DHT22;67442;44.570;18.610;2023-05-20T11:23:00;23.20;70.40
78184;DHT22;67442;44.570;18.610;2023-05-20T11:25:28;23.20;70.30
78184;DHT22;67442;44.570;18.610;2023-05-20T11:27:55;23.20;70.30
78184;DHT22;67442;44.570;18.610;2023-05-20T11:30:22;23.10;70.20
78184;DHT22;67442;44.570;18.610;2023-05-20T11:33:01;23.20;70.30
78184;DHT22;67442;44.570;18.610;2023-05-20T11:35:30;23.20;70.30
78184;DHT22;67442;44.570;18.610;2023-05-20T11:38:05;23.20;70.30
78184;DHT22;67442;44.570;18.610;2023-05-20T11:40:34;23.10;70.20
78184;DHT22;67442;44.570;18.610;2023-05-20T11:43:02;23.20;70.30
78184;DHT22;67442;44.570;18.610;2023-05-20T11:45:45;23.10;70.20
78184;DHT22;67442;44.570;18.610;2023-05-20T11:48:12;23.20;70.30
78184;DHT22;67442;44.570;18.610;2023-05-20T11:50:42;23.20;70.30
78184;DHT22;67442;44.570;18.610;2023-05-20T11:53:13;23.10;70.20
78184;DHT22;67442;44.570;18.610;2023-05-20T11:55:52;23.10;70.20
78184;DHT22;67442;44.570;18.610;2023-05-20T12:00:49;23.20;70.30
78184;DHT22;67442;44.570;18.610;2023-05-20T12:03:15;23.20;70.30
78184;DHT22;67442;44.570;18.610;2023-05-20T12:05:42;23.20;70.30
78184;DHT22;67442;44.570;18.610;2023-05-20T12:08:09;23.20;70.30
78184;DHT22;67442;44.570;18.610;2023-05-20T12:10:36;23.20;70.30
78184;DHT22;67442;44.570;18.610;2023-05-20T12:13:03;23.10;70.20
78184;DHT22;67442;44.570;18.610;2023-05-20T12:15:37;23.10;70.20
78184;DHT22;67442;44.570;18.610;2023-05-20T12:18:08;23.20;70.20
78184;DHT22;67442;44.570;18.610;2023-05-20T12:20:35;23.20;70.20
78184;DHT22;67442;44.570;18.610;2023-05-20T12:23:02;23.20;70.20
78184;DHT22;67442;44.570;18.610;2023-05-20T12:25:29;23.20;70.20
78184;DHT22;67442;44.570;18.610;2023-05-20T12:27:57;23.20;70.20
78184;DHT22;67442;44.570;18.610;2023-05-20T12:30:25;23.20;70.20
78184;DHT22;67442;44.570;18.610;2023-05-20T12:32:56;23.20;70.20
78184;DHT22;67442;44.570;18.610;2023-05-20T12:35:36;23.20;70.20
78184;DHT22;67442;44.570;18.610;2023-05-20T12:38:03;23.20;70.20
78184;DHT22;67442;44.570;18.610;2023-05-20T12:40:31;23.20;70.20
78184;DHT22;67442;44.570;18.610;2023-05-20T12:43:00;23.20;70.20
78184;DHT22;67442;44.570;18.610;2023-05-20T12:45:31;23.20;70.20
78184;DHT22;67442;44.570;18.610;2023-05-20T12:48:02;23.20;70.20
78184;DHT22;67442;44.570;18.610;2023-05-20T12:50:31;23.20;70.20
78184;DHT22;67442;44.570;18.610;2023-05-20T12:52:58;23.20;70.30
78184;DHT22;67442;44.570;18.610;2023-05-20T12:55:25;23.20;70.40
78184;DHT22;67442;44.570;18.610;2023-05-20T12:57:53;23.20;70.40
78184;DHT22;67442;44.570;18.610;2023-05-20T13:00:21;23.20;70.40
78184;DHT22;67442;44.570;18.610;2023-05-20T13:02:49;23.20;70.40
78184;DHT22;67442;44.570;18.610;2023-05-20T13:05:17;23.20;70.40
78184;DHT22;67442;44.570;18.610;2023-05-20T13:07:49;23.20;70.40
78184;DHT22;67442;44.570;18.610;2023-05-20T13:10:20;23.20;70.40
78184;DHT22;67442;44.570;18.610;2023-05-20T13:12:52;23.20;70.40
78184;DHT22;67442;44.570;18.610;2023-05-20T13:15:18;23.20;70.40
78184;DHT22;67442;44.570;18.610;2023-05-20T13:17:49;23.20;70.40
78184;DHT22;67442;44.570;18.610;2023-05-20T13:20:17;23.20;70.40
78184;DHT22;67442;44.570;18.610;2023-05-20T13:22:44;23.20;70.40
78184;DHT22;67442;44.570;18.610;2023-05-20T13:25:11;23.20;70.40
78184;DHT22;67442;44.570;18.610;2023-05-20T13:27:39;23.20;70.40
78184;DHT22;67442;44.570;18.610;2023-05-20T13:30:08;23.20;70.40
78184;DHT22;67442;44.570;18.610;2023-05-20T13:32:36;23.20;70.40
78184;DHT22;67442;44.570;18.610;2023-05-20T13:35:04;23.20;70.40
78184;DHT22;67442;44.570;18.610;2023-05-20T13:37:31;23.20;70.30
78184;DHT22;67442;44.570;18.610;2023-05-20T13:39:58;23.20;70.30
78184;DHT22;67442;44.570;18.610;2023-05-20T13:42:26;23.20;70.30
78184;DHT22;67442;44.570;18.610;2023-05-20T13:44:53;23.20;70.30
78184;DHT22;67442;44.570;18.610;2023-05-20T13:47:20;23.20;70.20
78184;DHT22;67442;44.570;18.610;2023-05-20T13:49:52;23.20;70.30
78184;DHT22;67442;44.570;18.610;2023-05-20T13:52:19;23.20;71.00
78184;DHT22;67442;44.570;18.610;2023-05-20T13:54:46;23.20;70.30
78184;DHT22;67442;44.570;18.610;2023-05-20T13:57:18;23.20;70.30
78184;DHT22;67442;44.570;18.610;2023-05-20T13:59:45;23.20;70.30
78184;DHT22;67442;44.570;18.610;2023-05-20T14:02:12;23.20;70.30
78184;DHT22;67442;44.570;18.610;2023-05-20T14:04:44;23.20;70.30
78184;DHT22;67442;44.570;18.610;2023-05-20T14:07:12;23.20;70.40
78184;DHT22;67442;44.570;18.610;2023-05-20T14:09:39;23.20;70.30
78184;DHT22;67442;44.570;18.610;2023-05-20T14:12:10;23.20;70.30
78184;DHT22;67442;44.570;18.610;2023-05-20T14:14:37;23.20;70.30
78184;DHT22;67442;44.570;18.610;2023-05-20T14:17:05;23.20;70.30
78184;DHT22;67442;44.570;18.610;2023-05-20T14:19:31;23.20;70.30
78184;DHT22;67442;44.570;18.610;2023-05-20T14:22:03;23.20;70.30
78184;DHT22;67442;44.570;18.610;2023-05-20T14:24:34;23.20;70.30
78184;DHT22;67442;44.570;18.610;2023-05-20T14:27:01;23.20;70.30
78184;DHT22;67442;44.570;18.610;2023-05-20T14:29:29;23.20;70.30
78184;DHT22;67442;44.570;18.610;2023-05-20T14:31:56;23.20;70.30
78184;DHT22;67442;44.570;18.610;2023-05-20T14:34:23;23.20;70.30
78184;DHT22;67442;44.570;18.610;2023-05-20T14:36:51;23.20;71.00
78184;DHT22;67442;44.570;18.610;2023-05-20T14:39:22;23.20;70.30
78184;DHT22;67442;44.570;18.610;2023-05-20T14:41:49;23.20;70.30
78184;DHT22;67442;44.570;18.610;2023-05-20T14:44:17;23.20;70.30
78184;DHT22;67442;44.570;18.610;2023-05-20T14:46:43;23.20;70.40
78184;DHT22;67442;44.570;18.610;2023-05-20T14:49:11;23.20;70.40
78184;DHT22;67442;44.570;18.610;2023-05-20T14:51:42;23.20;70.40
78184;DHT22;67442;44.570;18.610;2023-05-20T14:54:09;23.20;70.40
78184;DHT22;67442;44.570;18.610;2023-05-20T14:56:37;23.20;70.40
78184;DHT22;67442;44.570;18.610;2023-05-20T14:59:04;23.20;70.40
78184;DHT22;67442;44.570;18.610;2023-05-20T15:01:32;23.20;70.50
78184;DHT22;67442;44.570;18.610;2023-05-20T15:03:59;23.20;70.40
78184;DHT22;67442;44.570;18.610;2023-05-20T15:06:26;23.20;70.40
78184;DHT22;67442;44.570;18.610;2023-05-20T15:08:53;23.30;70.40
78184;DHT22;67442;44.570;18.610;2023-05-20T15:11:21;23.20;70.30
78184;DHT22;67442;44.570;18.610;2023-05-20T15:13:48;23.20;70.30
78184;DHT22;67442;44.570;18.610;2023-05-20T15:16:19;23.30;70.30
78184;DHT22;67442;44.570;18.610;2023-05-20T15:18:51;23.30;70.30
78184;DHT22;67442;44.570;18.610;2023-05-20T15:21:22;23.30;70.30
78184;DHT22;67442;44.570;18.610;2023-05-20T15:23:50;23.30;70.30
78184;DHT22;67442;44.570;18.610;2023-05-20T15:26:17;23.30;70.30
78184;DHT22;67442;44.570;18.610;2023-05-20T15:28:43;23.30;70.30
78184;DHT22;67442;44.570;18.610;2023-05-20T15:31:10;23.30;70.30
78184;DHT22;67442;44.570;18.610;2023-05-20T15:33:37;23.30;70.20
78184;DHT22;67442;44.570;18.610;2023-05-20T15:36:05;23.30;70.20